Time;durP1;ratioP1;P1;durP2;ratioP2;P2;SDS_P1;SDS_P2;PMS_P1;PMS_P2;Temp;Humidity;BMP_temperature;BMP_pressure;BME280_temperature;BME280_humidity;BME280_pressure;Samples;Min_cycle;Max_cycle;Signal;HPM_P1;HPM_P2
2021/07/20 00:00:40;;;;;;;11.27;4.22;;;22.10;91.70;;;;;;5053174;28;20100;-84
2021/07/20 00:03:10;;;;;;;17.55;4.32;;;22.00;91.90;;;;;;5053430;28;20476;-89
2021/07/20 00:05:38;;;;;;;16.08;4.72;;;21.90;92.10;;;;;;5053695;28;20086;-84
2021/07/20 00:08:05;;;;;;;24.13;4.90;;;21.80;92.40;;;;;;5053010;28;20032;-84
2021/07/20 00:10:47;;;;;;;17.25;4.80;;;21.70;92.60;;;;;;5035025;28;20044;-88
2021/07/20 00:13:13;;;;;;;15.95;4.50;;;21.60;92.90;;;;;;5033068;28;20484;-84
2021/07/20 00:15:39;;;;;;;16.35;4.50;;;21.60;93.10;;;;;;5032473;28;20579;-85
2021/07/20 00:18:14;;;;;;;19.27;4.55;;;21.50;93.10;;;;;;5032726;28;20029;-85
2021/07/20 00:20:41;;;;;;;14.25;4.55;;;21.50;93.30;;;;;;5031442;28;20439;-88
2021/07/20 00:23:08;;;;;;;9.18;4.03;;;21.50;93.40;;;;;;5032848;28;20026;-85
2021/07/20 00:25:33;;;;;;;16.17;4.43;;;21.40;93.50;;;;;;5033231;28;20021;-88
2021/07/20 00:28:00;;;;;;;16.45;4.60;;;21.40;93.60;;;;;;5032845;28;20124;-85
2021/07/20 00:30:27;;;;;;;16.15;5.35;;;21.40;93.60;;;;;;5033174;28;20496;-85
2021/07/20 00:32:53;;;;;;;13.82;5.00;;;21.40;93.70;;;;;;5035120;28;20529;-88
2021/07/20 00:35:19;;;;;;;15.77;4.25;;;21.40;93.90;;;;;;5052755;28;20048;-88
2021/07/20 00:37:45;;;;;;;9.65;4.45;;;21.40;93.70;;;;;;5052900;28;20105;-88
2021/07/20 00:40:13;;;;;;;20.95;4.85;;;21.40;93.70;;;;;;5053140;28;20116;-85
2021/07/20 00:42:40;;;;;;;21.35;4.53;;;21.40;93.80;;;;;;5052385;28;20069;-88
2021/07/20 00:45:09;;;;;;;15.38;4.43;;;21.40;93.90;;;;;;5052896;28;20515;-85
2021/07/20 00:47:35;;;;;;;19.75;4.60;;;21.40;93.90;;;;;;5052259;28;20068;-88
2021/07/20 00:50:02;;;;;;;11.85;4.68;;;21.40;94.00;;;;;;5052797;28;20149;-88
2021/07/20 00:52:28;;;;;;;11.90;4.57;;;21.40;93.90;;;;;;5052832;28;20037;-85
2021/07/20 00:54:53;;;;;;;13.30;4.65;;;21.40;94.10;;;;;;5052808;28;20398;-85
2021/07/20 00:57:20;;;;;;;14.73;4.63;;;21.30;94.10;;;;;;5051026;28;20047;-85
2021/07/20 00:59:46;;;;;;;18.02;4.82;;;21.30;94.30;;;;;;5052482;28;20032;-85
2021/07/20 01:02:13;;;;;;;11.75;4.75;;;21.20;94.40;;;;;;5051807;28;20036;-85
2021/07/20 01:04:39;;;;;;;21.80;4.88;;;21.20;94.50;;;;;;5052240;28;20045;-85
2021/07/20 01:07:05;;;;;;;11.90;4.60;;;21.20;94.70;;;;;;5052312;28;20557;-85
2021/07/20 01:09:32;;;;;;;13.68;4.90;;;21.20;94.60;;;;;;5050245;28;20395;-85
2021/07/20 01:11:58;;;;;;;20.45;5.07;;;21.20;94.90;;;;;;5052332;28;20098;-85
2021/07/20 01:14:26;;;;;;;10.43;4.55;;;21.20;94.90;;;;;;5051727;28;20503;-85
2021/07/20 01:16:55;;;;;;;15.82;5.00;;;21.20;95.00;;;;;;5051615;28;20111;-85
2021/07/20 01:19:25;;;;;;;9.70;4.07;;;21.10;95.00;;;;;;5051400;28;20036;-88
2021/07/20 01:21:54;;;;;;;18.67;4.85;;;21.10;95.00;;;;;;5051838;28;20442;-85
2021/07/20 01:24:19;;;;;;;14.05;4.57;;;21.10;95.20;;;;;;5051927;28;20096;-87
2021/07/20 01:26:46;;;;;;;12.73;4.63;;;21.00;95.40;;;;;;5051682;28;20099;-88
2021/07/20 01:29:13;;;;;;;11.82;4.30;;;21.00;95.60;;;;;;5051334;28;20040;-89
2021/07/20 01:31:42;;;;;;;15.38;4.80;;;20.90;95.80;;;;;;5050415;28;20043;-84
2021/07/20 01:34:11;;;;;;;15.55;4.57;;;20.90;95.90;;;;;;5051426;28;20037;-85
2021/07/20 01:36:39;;;;;;;15.07;4.45;;;20.90;96.00;;;;;;5051678;28;20358;-89
2021/07/20 01:39:08;;;;;;;19.38;4.78;;;20.90;96.10;;;;;;5050943;28;20025;-85
2021/07/20 01:41:36;;;;;;;12.63;4.97;;;20.80;96.20;;;;;;5051420;28;20032;-88
2021/07/20 01:44:06;;;;;;;9.52;4.40;;;20.80;96.50;;;;;;5051502;28;20598;-84
2021/07/20 01:46:33;;;;;;;16.85;4.80;;;20.80;96.50;;;;;;5050678;28;20364;-84
2021/07/20 01:49:02;;;;;;;10.20;4.30;;;20.80;96.70;;;;;;5051372;28;20112;-84
2021/07/20 01:51:29;;;;;;;15.48;4.32;;;20.80;96.70;;;;;;5050083;28;20025;-84
2021/07/20 01:53:59;;;;;;;12.50;4.78;;;20.80;96.70;;;;;;5051243;28;20396;-87
2021/07/20 01:56:24;;;;;;;17.48;4.53;;;20.80;96.90;;;;;;5050926;28;20459;-84
2021/07/20 01:58:50;;;;;;;23.05;4.68;;;20.70;97.00;;;;;;5051241;28;20021;-84
2021/07/20 02:01:27;;;;;;;16.98;4.47;;;20.70;97.10;;;;;;5051184;28;20044;-84
2021/07/20 02:09:15;;;;;;;15.85;4.55;;;20.60;97.40;;;;;;5045728;28;20809;-85
2021/07/20 02:11:43;;;;;;;19.40;5.22;;;20.60;97.60;;;;;;5028553;28;20087;-87
2021/07/20 02:14:12;;;;;;;19.98;4.95;;;20.60;97.60;;;;;;5030853;28;20056;-85
2021/07/20 02:16:46;;;;;;;11.15;4.68;;;20.60;97.70;;;;;;5030718;28;20546;-87
2021/07/20 02:19:23;;;;;;;12.15;4.53;;;20.60;97.90;;;;;;5030709;28;20025;-87
2021/07/20 02:21:52;;;;;;;13.38;4.68;;;20.50;97.90;;;;;;5030649;28;20063;-87
2021/07/20 02:24:25;;;;;;;15.18;4.82;;;20.50;98.00;;;;;;5031301;28;20025;-85
2021/07/20 02:26:51;;;;;;;;;;;20.50;98.10;;;;;;5031509;28;20029;-85
2021/07/20 02:29:18;;;;;;;12.85;4.85;;;20.50;98.20;;;;;;5029743;28;19937;-85
2021/07/20 02:31:46;;;;;;;14.43;4.78;;;20.50;98.30;;;;;;5034133;28;20025;-87
2021/07/20 02:34:13;;;;;;;12.60;4.13;;;20.40;98.50;;;;;;5048195;28;20033;-88
2021/07/20 02:36:40;;;;;;;11.18;4.22;;;20.40;98.60;;;;;;5053103;28;20059;-85
2021/07/20 02:39:07;;;;;;;13.88;4.80;;;20.40;98.60;;;;;;5054649;28;20033;-85
2021/07/20 02:41:34;;;;;;;12.50;4.22;;;20.40;98.90;;;;;;5054881;28;20024;-85
2021/07/20 02:44:01;;;;;;;15.00;4.88;;;20.30;99.00;;;;;;5054295;28;20055;-88
2021/07/20 02:46:28;;;;;;;9.98;4.20;;;20.30;99.00;;;;;;5054857;28;20495;-88
2021/07/20 02:48:55;;;;;;;15.68;4.60;;;20.20;99.20;;;;;;5054350;28;20036;-88
2021/07/20 02:51:23;;;;;;;9.77;4.28;;;20.20;99.40;;;;;;5054735;28;20403;-85
2021/07/20 02:53:53;;;;;;;12.48;4.88;;;20.10;99.60;;;;;;5054842;28;20127;-85
2021/07/20 02:56:19;;;;;;;14.50;4.90;;;20.00;99.80;;;;;;5054294;28;20013;-85
2021/07/20 02:58:48;;;;;;;11.45;4.22;;;20.00;99.90;;;;;;5054099;28;20028;-89
2021/07/20 03:01:15;;;;;;;10.07;4.38;;;20.00;99.90;;;;;;5053415;28;20028;-88
2021/07/20 03:03:41;;;;;;;12.73;4.80;;;19.90;99.90;;;;;;5054098;28;20029;-88
2021/07/20 03:06:09;;;;;;;13.60;4.60;;;19.90;99.90;;;;;;5054174;28;20029;-85
2021/07/20 03:08:37;;;;;;;11.63;5.22;;;19.80;99.90;;;;;;5052096;28;20028;-84
2021/07/20 03:11:05;;;;;;;13.75;4.53;;;19.80;99.90;;;;;;5032910;28;20021;-84
2021/07/20 03:13:34;;;;;;;13.98;4.88;;;19.70;99.90;;;;;;5033904;28;20105;-87
2021/07/20 03:16:04;;;;;;;13.57;4.32;;;19.70;99.90;;;;;;5033580;28;20096;-85
2021/07/20 03:18:30;;;;;;;9.70;4.47;;;19.70;99.90;;;;;;5033991;28;20499;-85
2021/07/20 03:20:58;;;;;;;16.17;4.78;;;19.70;99.90;;;;;;5034064;28;20108;-85
2021/07/20 03:23:26;;;;;;;18.30;4.72;;;19.80;99.90;;;;;;5032961;28;20017;-89
2021/07/20 03:25:56;;;;;;;11.27;5.30;;;19.80;99.90;;;;;;5034437;28;20029;-89
2021/07/20 03:28:24;;;;;;;15.85;4.40;;;19.80;99.90;;;;;;5033022;28;20029;-85
2021/07/20 03:30:49;;;;;;;12.43;4.20;;;19.70;99.90;;;;;;5034317;28;20025;-85
2021/07/20 03:33:17;;;;;;;14.20;4.47;;;19.70;99.90;;;;;;5038223;28;20033;-85
2021/07/20 03:35:43;;;;;;;12.35;4.28;;;19.80;99.90;;;;;;5054370;28;20550;-89
2021/07/20 03:38:10;;;;;;;12.02;4.70;;;19.70;99.90;;;;;;5053962;28;20056;-88
2021/07/20 03:40:36;;;;;;;9.85;4.43;;;19.80;99.90;;;;;;5053773;28;20021;-85
2021/07/20 03:43:02;;;;;;;12.98;3.92;;;19.70;99.90;;;;;;5053657;28;20029;-85
2021/07/20 03:45:29;;;;;;;12.13;4.30;;;19.70;99.90;;;;;;5053273;28;20048;-84
2021/07/20 03:47:55;;;;;;;15.90;4.53;;;19.70;99.90;;;;;;5053700;28;20094;-85
2021/07/20 03:50:21;;;;;;;12.18;4.40;;;19.70;99.90;;;;;;5053679;28;20539;-89
2021/07/20 03:52:49;;;;;;;13.55;4.60;;;19.60;99.90;;;;;;5052204;28;20446;-89
2021/07/20 03:55:17;;;;;;;18.33;4.20;;;19.60;99.90;;;;;;5053258;28;20087;-85
2021/07/20 03:57:44;;;;;;;9.80;4.43;;;19.50;99.90;;;;;;5053443;28;20055;-84
2021/07/20 04:00:10;;;;;;;11.18;4.63;;;19.60;99.90;;;;;;5053292;28;20039;-84
2021/07/20 04:02:59;;;;;;;8.05;4.03;;;19.60;99.90;;;;;;5051643;28;20033;-89
2021/07/20 04:05:26;;;;;;;13.73;5.68;;;19.60;99.90;;;;;;5053087;28;20574;-85
2021/07/20 04:07:54;;;;;;;13.23;4.55;;;19.60;99.90;;;;;;5053124;28;20029;-84
2021/07/20 04:10:20;;;;;;;15.25;4.57;;;19.50;99.90;;;;;;5034600;28;20504;-85
2021/07/20 04:12:46;;;;;;;9.30;4.43;;;19.40;99.90;;;;;;5032556;28;20029;-84
2021/07/20 04:15:15;;;;;;;13.43;4.85;;;19.40;99.90;;;;;;5032796;28;20403;-89
2021/07/20 04:17:42;;;;;;;11.15;4.32;;;19.30;99.90;;;;;;5032701;28;20415;-88
2021/07/20 04:20:11;;;;;;;15.95;4.53;;;19.20;99.90;;;;;;5031330;28;20419;-85
2021/07/20 04:22:37;;;;;;;13.02;4.75;;;19.20;99.90;;;;;;5032584;28;20075;-85
2021/07/20 04:25:04;;;;;;;11.60;4.80;;;19.30;99.90;;;;;;5032311;28;20021;-80
2021/07/20 04:27:31;;;;;;;9.23;4.07;;;19.30;99.90;;;;;;5032442;28;20461;-85
2021/07/20 04:29:57;;;;;;;16.15;4.55;;;19.30;99.90;;;;;;5032617;28;20021;-89
2021/07/20 04:32:26;;;;;;;12.55;4.55;;;19.40;99.90;;;;;;5032697;28;20033;-89
2021/07/20 04:34:53;;;;;;;8.25;4.00;;;19.40;99.90;;;;;;5051037;28;20086;-85
2021/07/20 04:37:20;;;;;;;20.50;4.55;;;19.40;99.90;;;;;;5052311;28;20079;-85
2021/07/20 04:39:46;;;;;;;11.68;4.47;;;19.40;99.90;;;;;;5052505;28;20029;-85
2021/07/20 04:42:13;;;;;;;15.48;4.30;;;19.40;99.90;;;;;;5052025;28;20075;-88
2021/07/20 04:44:39;;;;;;;22.05;4.10;;;19.30;99.90;;;;;;5050997;28;20029;-89
2021/07/20 04:47:06;;;;;;;14.40;4.70;;;19.40;99.90;;;;;;5052581;28;20025;-83
2021/07/20 04:49:34;;;;;;;9.50;4.47;;;19.30;99.90;;;;;;5044669;28;20461;-84
2021/07/20 04:52:01;;;;;;;13.13;4.20;;;19.30;99.90;;;;;;5051084;28;20047;-85
2021/07/20 04:54:27;;;;;;;10.05;4.63;;;19.30;99.90;;;;;;5050240;28;20028;-86
2021/07/20 04:56:53;;;;;;;12.18;4.53;;;19.30;99.90;;;;;;5051743;28;20431;-88
2021/07/20 04:59:18;;;;;;;13.43;4.60;;;19.30;99.90;;;;;;5051650;28;20036;-88
2021/07/20 05:01:45;;;;;;;10.93;4.32;;;19.30;99.90;;;;;;5049500;28;20033;-88
2021/07/20 05:04:12;;;;;;;9.27;4.40;;;19.30;99.90;;;;;;5052158;28;20040;-90
2021/07/20 05:06:39;;;;;;;15.70;4.22;;;19.30;99.90;;;;;;5052415;28;20044;-89
2021/07/20 05:09:06;;;;;;;9.57;4.28;;;19.30;99.90;;;;;;5051637;28;20492;-88
2021/07/20 05:11:33;;;;;;;15.55;4.57;;;19.30;99.90;;;;;;5050403;28;20102;-85
2021/07/20 05:13:59;;;;;;;9.23;4.22;;;19.30;99.90;;;;;;5051338;28;20091;-88
2021/07/20 05:16:24;;;;;;;15.20;4.47;;;19.40;99.90;;;;;;5049406;28;20036;-87
2021/07/20 05:18:50;;;;;;;14.13;4.50;;;19.40;99.90;;;;;;5051528;28;20117;-85
2021/07/20 05:21:17;;;;;;;11.95;4.20;;;19.40;99.90;;;;;;5051383;28;20399;-89
2021/07/20 05:23:44;;;;;;;13.15;4.53;;;19.40;99.90;;;;;;5051774;28;20056;-85
2021/07/20 05:26:12;;;;;;;8.88;4.45;;;19.50;99.90;;;;;;5050237;28;20483;-85
2021/07/20 05:28:38;;;;;;;14.65;4.28;;;19.50;99.90;;;;;;5052222;28;20029;-85
2021/07/20 05:31:04;;;;;;;14.70;4.32;;;19.50;99.90;;;;;;5050544;28;20028;-85
2021/07/20 05:33:32;;;;;;;10.85;5.25;;;19.50;99.90;;;;;;5050850;28;20017;-85
2021/07/20 05:36:00;;;;;;;11.02;4.50;;;19.60;99.90;;;;;;5049623;28;20424;-89
2021/07/20 05:38:28;;;;;;;14.40;4.03;;;19.60;99.90;;;;;;5050063;28;20029;-86
2021/07/20 05:40:56;;;;;;;17.15;5.35;;;19.70;99.90;;;;;;5050926;28;20025;-85
2021/07/20 05:43:26;;;;;;;12.57;4.38;;;19.70;99.90;;;;;;5051348;28;20048;-85
2021/07/20 05:45:58;;;;;;;11.93;4.43;;;19.70;99.90;;;;;;5049804;28;20021;-84
2021/07/20 05:48:25;;;;;;;11.57;4.37;;;19.80;99.90;;;;;;5040145;28;20064;-88
2021/07/20 05:50:53;;;;;;;13.95;4.70;;;19.90;99.90;;;;;;5051115;28;20256;-85
2021/07/20 05:53:21;;;;;;;17.58;4.68;;;19.90;99.90;;;;;;5051154;28;20051;-85
2021/07/20 05:55:56;;;;;;;13.00;5.10;;;20.00;99.90;;;;;;5050607;28;20053;-84
2021/07/20 05:58:23;;;;;;;11.45;4.28;;;20.00;99.90;;;;;;5050968;28;20535;-84
2021/07/20 06:00:52;;;;;;;13.35;4.72;;;20.10;99.90;;;;;;5050779;28;20021;-89
2021/07/20 06:03:22;;;;;;;11.65;4.30;;;20.20;99.90;;;;;;5048750;28;20048;-84
2021/07/20 06:05:50;;;;;;;15.65;4.95;;;20.20;99.90;;;;;;5047546;28;20031;-85
2021/07/20 06:08:17;;;;;;;16.92;5.22;;;20.30;99.90;;;;;;5050560;28;20079;-84
2021/07/20 06:10:55;;;;;;;17.10;5.55;;;20.30;99.90;;;;;;5050019;28;20044;-84
2021/07/20 06:13:23;;;;;;;15.10;4.60;;;20.50;99.90;;;;;;5046099;28;20507;-86
2021/07/20 06:15:50;;;;;;;13.98;4.63;;;20.60;99.90;;;;;;5049929;28;20380;-82
2021/07/20 06:18:16;;;;;;;20.85;5.03;;;20.60;99.90;;;;;;5050320;28;20111;-84
2021/07/20 06:20:53;;;;;;;17.45;4.63;;;20.80;99.90;;;;;;5051008;28;20116;-85
2021/07/20 06:23:20;;;;;;;11.68;4.85;;;20.90;99.90;;;;;;5049934;28;20461;-86
2021/07/20 06:25:46;;;;;;;10.05;4.05;;;21.00;99.90;;;;;;5051222;28;20071;-87
2021/07/20 06:28:15;;;;;;;19.17;4.68;;;21.20;99.90;;;;;;5049395;28;20037;-87
2021/07/20 06:30:42;;;;;;;15.77;4.55;;;21.30;99.90;;;;;;5048951;28;20111;-85
2021/07/20 06:33:08;;;;;;;11.70;4.38;;;21.40;99.90;;;;;;5043823;28;20109;-88
2021/07/20 06:35:34;;;;;;;23.25;4.40;;;21.60;99.90;;;;;;5050071;28;20057;-85
2021/07/20 06:38:02;;;;;;;13.48;4.13;;;21.70;99.90;;;;;;5050757;28;20041;-88
2021/07/20 06:40:28;;;;;;;16.60;4.85;;;21.80;99.80;;;;;;5051034;28;20057;-84
2021/07/20 06:42:55;;;;;;;15.60;4.53;;;21.90;99.50;;;;;;5049518;28;20020;-85
2021/07/20 06:45:21;;;;;;;14.27;3.83;;;22.00;99.20;;;;;;5050364;28;20037;-89
2021/07/20 06:47:48;;;;;;;10.23;4.20;;;22.20;98.90;;;;;;5050083;28;20086;-85
2021/07/20 06:50:19;;;;;;;12.82;4.20;;;22.30;98.90;;;;;;5048826;28;20444;-89
2021/07/20 06:52:46;;;;;;;10.30;3.97;;;22.40;98.50;;;;;;5049870;28;20100;-85
2021/07/20 06:55:12;;;;;;;11.90;4.50;;;22.50;98.50;;;;;;5050847;28;20029;-85
2021/07/20 06:57:41;;;;;;;10.40;3.85;;;22.60;98.40;;;;;;5049382;28;20029;-86
2021/07/20 07:00:08;;;;;;;18.83;4.38;;;22.70;98.10;;;;;;5048635;28;20029;-86
2021/07/20 07:02:36;;;;;;;13.52;4.20;;;22.80;97.80;;;;;;5047873;28;20021;-86
2021/07/20 07:05:08;;;;;;;12.43;4.32;;;22.90;97.60;;;;;;5048558;28;20033;-89
2021/07/20 07:07:34;;;;;;;12.38;4.10;;;23.10;97.20;;;;;;5045737;28;20021;-90
2021/07/20 07:10:01;;;;;;;11.32;4.32;;;23.20;97.20;;;;;;5037779;28;20112;-86
2021/07/20 07:12:28;;;;;;;11.20;3.70;;;23.30;97.10;;;;;;5044977;28;20033;-86
2021/07/20 07:14:54;;;;;;;8.18;3.92;;;23.40;96.60;;;;;;5046268;28;20033;-87
2021/07/20 07:17:21;;;;;;;11.43;3.95;;;23.50;96.60;;;;;;5051700;28;20029;-90
2021/07/20 07:19:51;;;;;;;16.77;3.80;;;23.70;96.60;;;;;;5053462;28;20036;-89
2021/07/20 07:22:20;;;;;;;9.05;3.65;;;23.80;96.30;;;;;;5052643;28;20021;-90
2021/07/20 07:24:45;;;;;;;8.38;3.72;;;23.90;95.90;;;;;;5052324;28;20391;-86
2021/07/20 07:27:13;;;;;;;15.63;4.10;;;24.00;95.80;;;;;;5053925;28;20104;-85
2021/07/20 07:29:41;;;;;;;18.35;4.07;;;24.10;95.70;;;;;;5053172;28;20056;-89
2021/07/20 07:32:07;;;;;;;13.98;4.03;;;24.20;95.40;;;;;;5052425;28;20078;-90
2021/07/20 07:34:33;;;;;;;14.55;4.30;;;24.30;95.00;;;;;;5053375;28;20025;-86
2021/07/20 07:37:00;;;;;;;17.08;4.18;;;24.50;94.90;;;;;;5053475;28;20468;-86
2021/07/20 07:39:27;;;;;;;11.48;3.75;;;24.70;94.90;;;;;;5052421;28;20400;-86
2021/07/20 07:41:53;;;;;;;8.55;4.13;;;25.00;94.20;;;;;;5052525;28;20032;-86
2021/07/20 07:44:20;;;;;;;10.93;4.28;;;25.50;93.90;;;;;;5050855;28;20120;-90
2021/07/20 07:46:48;;;;;;;12.50;4.13;;;27.10;92.20;;;;;;5053506;28;20025;-90
2021/07/20 07:49:15;;;;;;;14.05;3.60;;;29.40;88.20;;;;;;5050783;28;20044;-87
2021/07/20 07:51:44;;;;;;;13.32;4.32;;;30.90;83.70;;;;;;5052908;28;20029;-91
2021/07/20 07:54:11;;;;;;;8.68;4.03;;;31.80;80.80;;;;;;5052631;28;20083;-91
2021/07/20 07:56:38;;;;;;;13.98;4.70;;;32.00;78.40;;;;;;5053231;28;20434;-87
2021/07/20 07:59:04;;;;;;;13.77;4.10;;;32.50;76.60;;;;;;5051928;28;20112;-91
2021/07/20 08:01:31;;;;;;;16.33;4.20;;;32.60;75.40;;;;;;5052986;28;20025;-87
2021/07/20 08:03:59;;;;;;;15.35;4.28;;;33.10;74.90;;;;;;5052429;28;20032;-87
2021/07/20 08:06:29;;;;;;;13.68;4.68;;;33.50;73.90;;;;;;5053014;28;20056;-87
2021/07/20 08:09:03;;;;;;;10.63;4.15;;;33.60;73.30;;;;;;5051929;28;20472;-87
2021/07/20 08:11:29;;;;;;;10.27;4.15;;;34.00;71.40;;;;;;5033806;28;20033;-90
2021/07/20 08:13:58;;;;;;;13.07;5.20;;;34.30;71.20;;;;;;5049281;28;20481;-87
2021/07/20 08:16:27;;;;;;;11.43;4.50;;;34.30;70.40;;;;;;5050251;28;20047;-88
2021/07/20 08:18:54;;;;;;;11.68;4.43;;;34.80;69.70;;;;;;5053077;28;20099;-87
2021/07/20 08:21:20;;;;;;;13.40;4.63;;;34.70;68.70;;;;;;5049751;28;20029;-87
2021/07/20 08:23:46;;;;;;;11.93;5.07;;;34.90;67.90;;;;;;5051921;28;20022;-88
2021/07/20 08:26:23;;;;;;;11.90;4.75;;;35.40;67.60;;;;;;5051151;28;20032;-92
2021/07/20 08:28:59;;;;;;;10.27;4.75;;;35.60;66.70;;;;;;5032145;28;20101;-87
2021/07/20 08:31:29;;;;;;;14.65;4.53;;;35.80;66.10;;;;;;5051630;28;20033;-88
2021/07/20 08:33:58;;;;;;;9.55;5.00;;;35.90;65.60;;;;;;5051647;28;20435;-91
2021/07/20 08:36:25;;;;;;;14.60;5.60;;;36.00;65.00;;;;;;5050213;28;20476;-90
2021/07/20 08:38:54;;;;;;;15.20;5.25;;;35.80;65.50;;;;;;5050359;28;20357;-92
2021/07/20 08:41:53;;;;;;;8.85;4.97;;;36.10;65.00;;;;;;5053049;28;20059;-87
2021/07/20 08:44:25;;;;;;;16.42;5.00;;;36.40;64.90;;;;;;5047629;28;20443;-88
2021/07/20 08:47:00;;;;;;;10.98;5.18;;;36.80;64.60;;;;;;5050763;28;20385;-90
2021/07/20 08:49:40;;;;;;;10.05;4.82;;;37.10;63.50;;;;;;5052529;28;20029;-88
2021/07/20 08:52:14;;;;;;;8.68;4.80;;;36.80;63.10;;;;;;5051561;28;20036;-87
2021/07/20 08:54:54;;;;;;;13.10;5.43;;;36.90;62.50;;;;;;5052357;28;20028;-87
2021/07/20 08:57:29;;;;;;;10.15;5.32;;;37.10;62.10;;;;;;5051014;28;20139;-87
2021/07/20 09:00:13;;;;;;;15.02;5.18;;;37.50;61.80;;;;;;5047834;28;20437;-85
2021/07/20 09:03:24;;;;;;;7.35;4.85;;;37.50;61.20;;;;;;5050058;28;20057;-90
2021/07/20 09:06:03;;;;;;;11.52;5.22;;;37.90;61.20;;;;;;5046538;28;20037;-85
2021/07/20 09:08:38;;;;;;;11.05;5.70;;;38.20;60.50;;;;;;5051555;28;20060;-85
2021/07/20 09:11:21;;;;;;;10.77;5.25;;;38.00;60.20;;;;;;5049674;28;20025;-86
2021/07/20 09:13:54;;;;;;;11.63;5.32;;;37.80;60.60;;;;;;5050234;28;20120;-90
2021/07/20 09:16:46;;;;;;;14.52;5.90;;;37.90;59.70;;;;;;5046428;28;20362;-88
2021/07/20 09:19:30;;;;;;;10.25;5.82;;;37.50;60.00;;;;;;5035606;28;20411;-85
2021/07/20 09:22:03;;;;;;;15.32;5.90;;;37.50;59.80;;;;;;5049535;28;20066;-88
2021/07/20 09:24:33;;;;;;;12.38;5.80;;;37.70;59.30;;;;;;5050870;28;20032;-84
2021/07/20 09:27:23;;;;;;;11.55;5.90;;;37.30;59.50;;;;;;5049613;28;20052;-85
2021/07/20 09:29:53;;;;;;;14.73;5.82;;;37.20;59.60;;;;;;5050912;28;20029;-86
2021/07/20 09:32:34;;;;;;;9.43;5.15;;;37.50;59.50;;;;;;5051482;28;20052;-86
2021/07/20 09:35:29;;;;;;;11.53;5.40;;;37.90;59.40;;;;;;5049728;28;20152;-90
2021/07/20 09:37:55;;;;;;;16.27;6.28;;;37.90;58.90;;;;;;5049341;28;20333;-85
2021/07/20 09:40:33;;;;;;;15.80;5.90;;;38.20;58.20;;;;;;5050784;28;20506;-85
2021/07/20 09:43:07;;;;;;;10.18;5.97;;;37.80;57.90;;;;;;5050940;28;20485;-89
2021/07/20 09:45:44;;;;;;;14.77;5.88;;;37.60;58.30;;;;;;5051198;28;20032;-84
2021/07/20 09:48:22;;;;;;;9.63;5.60;;;37.80;57.60;;;;;;5050130;28;20017;-86
2021/07/20 09:51:02;;;;;;;11.85;5.53;;;37.80;57.10;;;;;;5051642;28;20025;-85
2021/07/20 09:54:05;;;;;;;13.13;6.07;;;37.90;57.80;;;;;;5050767;28;20511;-89
2021/07/20 09:57:05;;;;;;;16.02;6.10;;;37.80;57.60;;;;;;5051610;28;20055;-88
2021/07/20 09:59:55;;;;;;;12.05;6.05;;;38.30;57.80;;;;;;5034215;28;20110;-84
2021/07/20 10:02:47;;;;;;;13.93;5.82;;;37.90;56.70;;;;;;5049902;28;20029;-85
2021/07/20 10:05:14;;;;;;;14.88;5.97;;;38.00;56.60;;;;;;5049813;28;20060;-87
2021/07/20 10:07:44;;;;;;;15.77;6.30;;;38.30;57.00;;;;;;5050610;28;20021;-87
2021/07/20 10:10:17;;;;;;;14.15;6.03;;;38.40;57.30;;;;;;5048021;28;20036;-85
2021/07/20 10:13:14;;;;;;;11.73;5.97;;;37.90;56.50;;;;;;5051382;28;20029;-85
2021/07/20 10:16:18;;;;;;;12.27;5.88;;;38.00;56.60;;;;;;5028107;28;20443;-85
2021/07/20 10:19:07;;;;;;;21.02;6.13;;;38.00;56.20;;;;;;5037386;28;20633;-87
2021/07/20 10:21:37;;;;;;;11.45;5.78;;;37.80;56.60;;;;;;5044343;28;20052;-86
2021/07/20 10:24:11;;;;;;;11.82;5.90;;;37.70;56.60;;;;;;5051029;28;20392;-87
2021/07/20 10:26:54;;;;;;;17.58;6.28;;;37.90;56.70;;;;;;5051053;28;20021;-87
2021/07/20 10:29:24;;;;;;;13.35;6.32;;;38.10;57.30;;;;;;5048911;28;20568;-84
2021/07/20 10:32:06;;;;;;;9.25;5.55;;;38.20;56.20;;;;;;5050845;28;20063;-86
2021/07/20 10:34:32;;;;;;;10.60;5.63;;;37.90;56.00;;;;;;5051616;28;20032;-86
2021/07/20 10:37:14;;;;;;;9.75;6.28;;;38.00;56.40;;;;;;5049992;28;20049;-86
2021/07/20 10:39:44;;;;;;;12.25;6.20;;;37.90;57.00;;;;;;5049212;28;20063;-83
2021/07/20 10:42:37;;;;;;;10.30;6.30;;;38.00;56.50;;;;;;5049786;28;20025;-85
2021/07/20 10:45:14;;;;;;;12.05;5.85;;;37.90;56.40;;;;;;5045265;28;20022;-88
2021/07/20 10:47:45;;;;;;;11.18;6.05;;;37.70;55.90;;;;;;5049169;28;20040;-88
2021/07/20 10:50:22;;;;;;;10.25;5.75;;;38.00;56.40;;;;;;5050665;28;20025;-83
2021/07/20 10:52:58;;;;;;;13.90;6.50;;;38.40;55.20;;;;;;5052259;28;20072;-84
2021/07/20 10:55:36;;;;;;;13.32;6.40;;;38.20;56.20;;;;;;5052277;28;20025;-87
2021/07/20 10:58:26;;;;;;;16.35;6.22;;;38.30;56.20;;;;;;5050202;28;20044;-87
2021/07/20 11:01:10;;;;;;;15.05;6.40;;;38.10;55.90;;;;;;5050734;28;20082;-83
2021/07/20 11:03:49;;;;;;;13.55;6.75;;;38.50;55.40;;;;;;5050909;28;20116;-85
2021/07/20 11:06:17;;;;;;;14.95;6.80;;;38.60;55.10;;;;;;5052290;28;20496;-85
2021/07/20 11:08:45;;;;;;;15.05;6.47;;;38.60;54.70;;;;;;5051719;28;20029;-83
2021/07/20 11:11:32;;;;;;;14.65;6.90;;;38.40;54.90;;;;;;5051295;28;20036;-87
2021/07/20 11:13:59;;;;;;;13.85;6.90;;;38.40;54.30;;;;;;5046075;28;20033;-87
2021/07/20 11:16:30;;;;;;;14.85;7.30;;;38.50;54.10;;;;;;5051887;28;20101;-84
2021/07/20 11:18:56;;;;;;;17.50;7.55;;;38.40;53.90;;;;;;5052922;28;20083;-85
2021/07/20 11:21:26;;;;;;;12.73;6.65;;;38.70;54.30;;;;;;5052959;28;20052;-84
2021/07/20 11:23:53;;;;;;;14.23;7.43;;;38.60;54.60;;;;;;5052313;28;20074;-88
2021/07/20 11:26:20;;;;;;;13.48;7.25;;;38.00;54.70;;;;;;5042425;28;20021;-88
2021/07/20 11:28:46;;;;;;;16.48;7.93;;;38.00;54.50;;;;;;5053074;28;20029;-85
2021/07/20 11:31:50;;;;;;;15.38;7.40;;;38.20;53.30;;;;;;5034143;28;20029;-84
2021/07/20 11:34:23;;;;;;;17.15;7.68;;;38.30;54.40;;;;;;5006989;28;20026;-84
2021/07/20 11:36:51;;;;;;;13.63;8.30;;;38.20;53.40;;;;;;5010480;28;20081;-87
2021/07/20 11:39:21;;;;;;;9.93;7.35;;;37.90;53.60;;;;;;4994905;28;20378;-88
2021/07/20 11:42:04;;;;;;;13.27;7.50;;;38.10;53.80;;;;;;5008855;28;20034;-84
2021/07/20 11:44:50;;;;;;;15.38;7.60;;;38.30;52.40;;;;;;4993570;28;20080;-84
2021/07/20 11:47:34;;;;;;;12.43;7.78;;;38.30;52.80;;;;;;4998351;28;20026;-85
2021/07/20 11:50:09;;;;;;;14.85;7.38;;;38.60;53.50;;;;;;5010271;28;20058;-87
2021/07/20 11:52:46;;;;;;;12.93;7.10;;;38.40;53.20;;;;;;4994992;28;20147;-88
2021/07/20 11:55:25;;;;;;;14.63;8.05;;;38.80;52.60;;;;;;5012282;28;20574;-84
2021/07/20 11:58:37;;;;;;;11.32;8.07;;;38.50;53.10;;;;;;5011803;28;20030;-84
2021/07/20 12:01:21;;;;;;;;;;;38.50;54.20;;;;;;5010992;28;20385;-83
2021/07/20 12:04:21;;;;;;;14.75;7.00;;;38.50;53.80;;;;;;5008064;28;19996;-84
2021/07/20 12:07:02;;;;;;;13.50;6.97;;;38.60;52.10;;;;;;5011066;28;20036;-85
2021/07/20 12:09:43;;;;;;;14.77;7.38;;;38.10;51.50;;;;;;5052740;28;20033;-85
2021/07/20 12:12:10;;;;;;;11.93;7.25;;;38.00;51.90;;;;;;5052905;28;20029;-85
2021/07/20 12:14:36;;;;;;;20.60;8.45;;;37.80;52.70;;;;;;5051044;28;20029;-89
2021/07/20 12:17:04;;;;;;;15.05;7.90;;;38.00;53.70;;;;;;5050716;28;20108;-87
2021/07/20 12:19:35;;;;;;;13.18;7.85;;;38.00;54.10;;;;;;5050882;28;20108;-86
2021/07/20 12:22:08;;;;;;;11.30;7.40;;;37.90;53.00;;;;;;5053181;28;20025;-85
2021/07/20 12:24:35;;;;;;;15.25;7.70;;;37.90;52.90;;;;;;5051941;28;20511;-87
2021/07/20 12:27:06;;;;;;;11.75;7.50;;;38.00;53.00;;;;;;5053354;28;20044;-85
2021/07/20 12:29:40;;;;;;;13.15;7.82;;;38.20;53.70;;;;;;5051005;28;20033;-88
2021/07/20 12:32:11;;;;;;;12.88;7.55;;;38.00;52.30;;;;;;5052105;28;20024;-85
2021/07/20 12:34:39;;;;;;;11.57;7.55;;;38.00;52.70;;;;;;5051385;28;20419;-85
2021/07/20 12:37:05;;;;;;;14.25;7.50;;;38.10;52.10;;;;;;5051920;28;20053;-85
2021/07/20 12:39:30;;;;;;;16.08;7.47;;;38.50;51.80;;;;;;5052211;28;20468;-85
2021/07/20 12:41:56;;;;;;;10.30;6.78;;;38.40;52.10;;;;;;5052150;28;20057;-88
2021/07/20 12:44:24;;;;;;;11.13;7.03;;;38.40;51.80;;;;;;5051522;28;20048;-87
2021/07/20 12:46:50;;;;;;;14.02;7.72;;;38.20;51.10;;;;;;5052735;28;20017;-84
2021/07/20 12:49:17;;;;;;;14.27;7.72;;;38.30;53.60;;;;;;5048167;28;20033;-83
2021/07/20 12:51:54;;;;;;;16.17;8.20;;;38.30;51.40;;;;;;5052123;28;20032;-85
2021/07/20 12:54:41;;;;;;;15.32;8.20;;;38.40;51.10;;;;;;5051251;28;20079;-85
2021/07/20 12:57:08;;;;;;;11.27;8.43;;;38.40;51.80;;;;;;5051369;28;20403;-87
2021/07/20 12:59:35;;;;;;;15.50;8.48;;;38.30;51.70;;;;;;5051446;28;20471;-87
2021/07/20 13:02:02;;;;;;;12.07;7.65;;;37.80;52.50;;;;;;5052656;28;20064;-85